createdAt,value
2018-08-27T00:00:07.729Z,99.90
2018-08-27T00:02:36.822Z,99.90
2018-08-27T00:05:06.115Z,99.90
2018-08-27T00:07:35.350Z,99.90
2018-08-27T00:10:04.700Z,99.90
2018-08-27T00:12:33.983Z,99.90
2018-08-27T00:15:03.093Z,99.90
2018-08-27T00:17:32.195Z,99.90
2018-08-27T00:20:01.354Z,99.90
2018-08-27T00:22:30.480Z,99.90
2018-08-27T00:24:59.570Z,99.90
2018-08-27T00:27:28.670Z,99.90
2018-08-27T00:29:57.763Z,99.90
2018-08-27T00:32:26.902Z,99.90
2018-08-27T00:34:56.166Z,99.90
2018-08-27T00:37:25.294Z,99.90
2018-08-27T00:39:54.376Z,99.90
2018-08-27T00:42:23.490Z,99.90
2018-08-27T00:44:53.027Z,99.90
2018-08-27T00:47:22.518Z,99.90
2018-08-27T00:49:51.922Z,99.90
2018-08-27T00:52:21.060Z,99.90
2018-08-27T00:54:50.182Z,99.90
2018-08-27T00:57:19.631Z,99.90
2018-08-27T00:59:48.759Z,99.90
2018-08-27T01:02:17.905Z,99.90
2018-08-27T01:04:47.002Z,99.90
2018-08-27T01:07:16.113Z,99.90
2018-08-27T01:09:45.219Z,99.90
2018-08-27T01:12:14.315Z,99.90
2018-08-27T01:14:43.955Z,99.90
2018-08-27T01:17:13.049Z,99.90
2018-08-27T01:19:42.150Z,99.90
2018-08-27T01:22:11.378Z,99.90
2018-08-27T01:24:40.539Z,99.90
2018-08-27T01:27:09.679Z,99.90
2018-08-27T01:29:38.790Z,99.90
2018-08-27T01:32:14.674Z,99.90
2018-08-27T01:34:44.078Z,99.90
2018-08-27T01:37:13.932Z,99.90
2018-08-27T01:42:18.514Z,99.90
2018-08-27T01:44:47.688Z,99.90
2018-08-27T01:47:16.854Z,99.90
2018-08-27T01:49:46.022Z,99.90
2018-08-27T01:52:15.137Z,99.90
2018-08-27T01:54:44.502Z,99.90
2018-08-27T01:57:13.711Z,99.90
2018-08-27T01:59:42.991Z,99.90
2018-08-27T02:02:12.941Z,99.90
2018-08-27T02:04:44.177Z,99.90
2018-08-27T02:07:14.918Z,99.90
2018-08-27T02:09:46.055Z,99.90
2018-08-27T02:12:15.930Z,99.90
2018-08-27T02:14:46.072Z,99.90
2018-08-27T02:17:18.666Z,99.90
2018-08-27T02:19:48.261Z,99.90
2018-08-27T02:22:17.925Z,99.90
2018-08-27T02:24:49.374Z,99.90
2018-08-27T02:27:18.537Z,99.90
2018-08-27T02:29:47.909Z,99.90
2018-08-27T02:32:17.044Z,99.90
2018-08-27T02:34:46.963Z,99.90
2018-08-27T02:37:16.862Z,99.90
2018-08-27T02:39:45.991Z,99.90
2018-08-27T02:42:15.853Z,99.90
2018-08-27T02:44:45.054Z,99.90
2018-08-27T02:47:14.178Z,99.90
2018-08-27T02:49:43.759Z,99.90
2018-08-27T02:52:13.346Z,99.90
2018-08-27T02:54:42.729Z,99.90
2018-08-27T02:57:11.834Z,99.90
2018-08-27T02:59:40.985Z,99.90
2018-08-27T03:02:10.115Z,99.90
2018-08-27T03:04:39.319Z,99.90
2018-08-27T03:07:08.485Z,99.90
2018-08-27T03:09:37.612Z,99.90
2018-08-27T03:12:07.672Z,99.90
2018-08-27T03:14:36.804Z,99.90
2018-08-27T03:17:05.903Z,99.90
2018-08-27T03:19:35.046Z,99.90
2018-08-27T03:22:04.154Z,99.90
2018-08-27T03:24:33.326Z,99.90
2018-08-27T03:27:02.434Z,99.90
2018-08-27T03:29:31.541Z,99.90
2018-08-27T03:32:00.730Z,99.90
2018-08-27T03:34:29.859Z,99.90
2018-08-27T03:36:59.190Z,99.90
2018-08-27T03:39:28.354Z,99.90
2018-08-27T03:41:57.467Z,99.90
2018-08-27T03:44:26.609Z,99.90
2018-08-27T03:46:56.045Z,99.90
2018-08-27T03:49:25.170Z,99.90
2018-08-27T03:51:54.349Z,99.90
2018-08-27T03:54:23.654Z,99.90
2018-08-27T03:56:52.817Z,99.90
2018-08-27T03:59:21.942Z,99.90
2018-08-27T04:01:51.055Z,99.90
2018-08-27T04:04:20.154Z,99.90
2018-08-27T04:06:49.295Z,99.90
2018-08-27T04:09:18.442Z,99.90
2018-08-27T04:11:47.778Z,99.90
2018-08-27T04:14:17.216Z,99.90
2018-08-27T04:16:46.486Z,99.90
2018-08-27T04:19:16.308Z,99.90
2018-08-27T04:21:45.405Z,99.90
2018-08-27T04:24:14.514Z,99.90
2018-08-27T04:26:43.693Z,99.90
2018-08-27T04:29:12.801Z,99.90
2018-08-27T04:31:41.899Z,99.90
2018-08-27T04:34:11.026Z,99.90
2018-08-27T04:36:40.805Z,99.90
2018-08-27T04:39:11.144Z,99.90
2018-08-27T04:41:40.258Z,99.90
2018-08-27T04:44:09.744Z,99.90
2018-08-27T04:46:38.907Z,99.90
2018-08-27T04:49:08.022Z,99.90
2018-08-27T04:51:37.111Z,99.90
2018-08-27T04:54:06.745Z,99.90
2018-08-27T04:56:35.863Z,99.90
2018-08-27T04:59:12.246Z,99.90
2018-08-27T05:01:41.352Z,99.90
2018-08-27T05:04:10.478Z,99.90
2018-08-27T05:06:39.706Z,99.90
2018-08-27T05:09:10.128Z,99.90
2018-08-27T05:11:40.132Z,99.90
2018-08-27T05:14:10.769Z,99.90
2018-08-27T05:16:40.234Z,99.90
2018-08-27T05:19:10.717Z,99.90
2018-08-27T05:21:39.978Z,99.90
2018-08-27T05:24:09.228Z,99.90
2018-08-27T05:26:38.568Z,99.90
2018-08-27T05:29:07.313Z,99.90
2018-08-27T05:31:36.426Z,99.90
2018-08-27T05:34:05.799Z,99.90
2018-08-27T05:36:34.937Z,99.90
2018-08-27T05:39:05.147Z,99.90
2018-08-27T05:41:34.262Z,99.90
2018-08-27T05:44:03.414Z,99.90
2018-08-27T05:46:32.559Z,99.90
2018-08-27T05:49:02.017Z,99.90
2018-08-27T05:51:31.164Z,99.90
2018-08-27T05:54:00.294Z,99.90
2018-08-27T05:56:29.438Z,99.90
2018-08-27T05:58:58.598Z,99.90
2018-08-27T06:01:28.157Z,99.90
2018-08-27T06:03:57.606Z,99.90
2018-08-27T06:06:26.726Z,99.90
2018-08-27T06:08:55.933Z,99.90
2018-08-27T06:11:25.026Z,99.90
2018-08-27T06:13:54.219Z,99.90
2018-08-27T06:16:23.021Z,99.90
2018-08-27T06:18:52.078Z,99.90
2018-08-27T06:21:22.270Z,99.90
2018-08-27T06:23:51.972Z,99.90
2018-08-27T06:26:21.215Z,99.90
2018-08-27T06:28:50.354Z,99.90
2018-08-27T06:31:19.471Z,99.90
2018-08-27T06:33:48.606Z,99.90
2018-08-27T06:36:17.741Z,99.90
2018-08-27T06:38:46.877Z,99.90
2018-08-27T06:41:15.994Z,99.60
2018-08-27T06:43:45.118Z,96.70
2018-08-27T06:46:14.244Z,93.70
2018-08-27T06:48:43.354Z,92.40
2018-08-27T06:51:12.935Z,92.20
2018-08-27T06:53:42.086Z,91.10
2018-08-27T06:56:11.186Z,90.40
2018-08-27T06:58:40.305Z,90.00
2018-08-27T07:01:09.646Z,90.70
2018-08-27T07:03:38.844Z,90.80
2018-08-27T07:06:07.957Z,90.40
2018-08-27T07:08:37.785Z,91.00
2018-08-27T07:11:07.322Z,91.60
2018-08-27T07:13:36.505Z,91.30
2018-08-27T07:16:05.653Z,91.00
2018-08-27T07:18:34.905Z,91.10
2018-08-27T07:21:04.122Z,91.50
2018-08-27T07:23:33.433Z,91.20
2018-08-27T07:26:02.669Z,90.50
2018-08-27T07:28:31.893Z,90.20
2018-08-27T07:31:01.221Z,89.80
2018-08-27T07:33:30.413Z,86.90
2018-08-27T07:35:59.501Z,85.80
2018-08-27T07:38:28.637Z,81.20
2018-08-27T07:40:57.922Z,79.10
2018-08-27T07:43:27.083Z,74.20
2018-08-27T07:45:56.197Z,72.50
2018-08-27T07:48:25.302Z,73.80
2018-08-27T07:50:54.857Z,72.80
2018-08-27T07:53:24.021Z,71.90
2018-08-27T07:55:53.138Z,73.30
2018-08-27T07:58:22.354Z,73.90
2018-08-27T08:00:51.371Z,71.60
2018-08-27T08:03:21.098Z,74.30
2018-08-27T08:05:50.279Z,72.20
2018-08-27T08:08:19.397Z,70.70
2018-08-27T08:10:48.518Z,67.90
2018-08-27T08:13:17.674Z,67.90
2018-08-27T08:15:46.902Z,67.30
2018-08-27T08:18:18.107Z,69.00
2018-08-27T08:20:48.751Z,69.50
2018-08-27T08:23:18.290Z,69.90
2018-08-27T08:25:48.163Z,71.00
2018-08-27T08:28:17.302Z,69.60
2018-08-27T08:30:46.423Z,69.10
2018-08-27T08:33:15.580Z,68.80
2018-08-27T08:35:45.194Z,70.00
2018-08-27T08:38:14.364Z,67.90
2018-08-27T08:40:43.466Z,67.20
2018-08-27T08:43:12.618Z,69.10
2018-08-27T08:45:41.778Z,69.80
2018-08-27T08:48:10.893Z,71.10
2018-08-27T08:50:40.024Z,73.50
2018-08-27T08:53:09.187Z,74.60
2018-08-27T08:55:38.343Z,75.10
2018-08-27T08:58:07.614Z,73.60
2018-08-27T09:00:36.805Z,71.40
2018-08-27T09:03:05.930Z,71.10
2018-08-27T09:05:35.077Z,69.10
2018-08-27T09:08:04.230Z,66.90
2018-08-27T09:10:33.302Z,66.40
2018-08-27T09:13:02.459Z,65.50
2018-08-27T09:15:31.569Z,67.10
2018-08-27T09:18:01.441Z,66.90
2018-08-27T09:20:31.530Z,66.90
2018-08-27T09:23:00.678Z,65.00
2018-08-27T09:25:29.812Z,67.10
2018-08-27T09:27:58.958Z,68.50
2018-08-27T09:30:28.069Z,65.00
2018-08-27T09:32:57.573Z,68.40
2018-08-27T09:35:26.734Z,67.70
2018-08-27T09:37:55.846Z,66.60
2018-08-27T09:40:25.778Z,66.20
2018-08-27T09:42:54.915Z,67.60
2018-08-27T09:45:24.031Z,70.90
2018-08-27T09:47:53.386Z,72.30
2018-08-27T09:50:22.132Z,71.40
2018-08-27T09:52:51.278Z,70.60
2018-08-27T09:55:20.354Z,71.20
2018-08-27T09:57:49.487Z,70.90
2018-08-27T10:02:24.805Z,72.50
2018-08-27T10:04:53.977Z,71.30
2018-08-27T10:07:22.790Z,70.30
2018-08-27T10:09:51.942Z,71.10
2018-08-27T10:12:21.097Z,74.90
2018-08-27T10:14:50.244Z,76.00
2018-08-27T10:17:19.337Z,73.90
2018-08-27T10:19:49.193Z,73.30
2018-08-27T10:22:18.604Z,72.70
2018-08-27T10:24:47.176Z,71.40
2018-08-27T10:27:16.285Z,71.60
2018-08-27T10:29:45.437Z,71.20
2018-08-27T10:32:15.229Z,70.30
2018-08-27T10:34:44.458Z,71.40
2018-08-27T10:37:13.637Z,70.70
2018-08-27T10:39:42.774Z,69.50
2018-08-27T10:42:11.905Z,68.90
2018-08-27T10:44:41.034Z,69.00
2018-08-27T10:47:10.890Z,68.70
2018-08-27T10:49:40.014Z,67.40
2018-08-27T10:52:09.866Z,66.70
2018-08-27T10:54:39.510Z,65.10
2018-08-27T10:57:08.801Z,63.90
2018-08-27T10:59:37.927Z,64.50
2018-08-27T11:02:07.125Z,66.40
2018-08-27T11:04:36.222Z,65.70
2018-08-27T11:07:05.343Z,65.50
2018-08-27T11:09:34.463Z,67.90
2018-08-27T11:12:04.267Z,67.90
2018-08-27T11:14:33.403Z,68.10
2018-08-27T11:17:02.566Z,68.40
2018-08-27T11:19:32.264Z,67.50
2018-08-27T11:22:01.334Z,65.40
2018-08-27T11:24:30.689Z,67.20
2018-08-27T11:27:00.318Z,69.00
2018-08-27T11:29:29.464Z,67.80
2018-08-27T11:31:58.667Z,68.30
2018-08-27T11:34:27.806Z,66.80
2018-08-27T11:36:56.921Z,68.30
2018-08-27T11:39:26.043Z,68.70
2018-08-27T11:41:55.133Z,68.00
2018-08-27T11:44:24.261Z,67.40
2018-08-27T11:46:54.106Z,65.30
2018-08-27T11:49:23.228Z,64.90
2018-08-27T11:51:52.373Z,65.30
2018-08-27T11:54:21.453Z,66.20
2018-08-27T11:56:50.571Z,67.00
2018-08-27T11:59:19.698Z,65.70
2018-08-27T12:01:48.821Z,66.70
2018-08-27T12:04:17.930Z,65.40
2018-08-27T12:06:47.116Z,62.70
2018-08-27T12:09:16.202Z,62.80
2018-08-27T12:11:45.298Z,62.80
2018-08-27T12:14:14.443Z,64.10
2018-08-27T12:16:43.612Z,64.00
2018-08-27T12:19:13.142Z,63.60
2018-08-27T12:21:43.468Z,63.00
2018-08-27T12:24:12.617Z,62.10
2018-08-27T12:26:41.778Z,60.10
2018-08-27T12:29:11.300Z,64.10
2018-08-27T12:31:40.874Z,64.30
2018-08-27T12:34:10.034Z,64.80
2018-08-27T12:36:39.254Z,64.30
2018-08-27T12:39:09.798Z,70.90
2018-08-27T12:41:40.319Z,75.70
2018-08-27T12:44:09.473Z,79.50
2018-08-27T12:46:38.650Z,81.80
2018-08-27T12:49:07.876Z,81.80
2018-08-27T12:51:37.029Z,82.80
2018-08-27T12:54:06.218Z,82.50
2018-08-27T12:56:35.370Z,82.60
2018-08-27T12:59:05.438Z,83.80
2018-08-27T13:01:34.590Z,86.20
2018-08-27T13:04:03.712Z,87.30
2018-08-27T13:06:32.959Z,88.00
2018-08-27T13:09:02.190Z,87.30
2018-08-27T13:11:31.510Z,86.10
2018-08-27T13:14:00.582Z,86.20
2018-08-27T13:16:29.397Z,87.40
2018-08-27T13:18:58.815Z,88.30
2018-08-27T13:21:27.966Z,86.00
2018-08-27T13:23:57.233Z,83.50
2018-08-27T13:26:26.359Z,81.50
2018-08-27T13:28:55.514Z,82.70
2018-08-27T13:31:25.263Z,82.20
2018-08-27T13:33:54.479Z,83.50
2018-08-27T13:36:23.619Z,83.70
2018-08-27T13:38:53.231Z,83.90
2018-08-27T13:41:22.343Z,83.00
2018-08-27T13:43:51.465Z,83.60
2018-08-27T13:46:20.580Z,83.50
2018-08-27T13:48:49.842Z,88.00
2018-08-27T13:51:18.937Z,88.20
2018-08-27T13:53:48.082Z,87.20
2018-08-27T13:56:17.353Z,88.60
2018-08-27T13:58:46.530Z,90.60
2018-08-27T14:01:15.701Z,91.20
2018-08-27T14:03:44.824Z,91.20
2018-08-27T14:06:13.998Z,90.90
2018-08-27T14:08:43.096Z,88.20
2018-08-27T14:11:12.257Z,85.10
2018-08-27T14:13:41.450Z,87.80
2018-08-27T14:16:10.578Z,86.70
2018-08-27T14:18:40.054Z,85.20
2018-08-27T14:23:47.870Z,85.10
2018-08-27T14:26:17.035Z,86.90
2018-08-27T14:28:46.118Z,86.50
2018-08-27T14:31:15.666Z,84.50
2018-08-27T14:33:45.074Z,84.80
2018-08-27T14:36:14.158Z,82.10
2018-08-27T14:38:43.310Z,80.50
2018-08-27T14:41:12.526Z,79.10
2018-08-27T14:43:41.613Z,78.30
2018-08-27T14:46:10.814Z,78.30
2018-08-27T14:48:40.047Z,79.50
2018-08-27T14:51:09.382Z,79.00
2018-08-27T14:53:38.737Z,79.30
2018-08-27T14:56:07.943Z,81.30
2018-08-27T14:58:37.127Z,81.80
2018-08-27T15:01:08.338Z,83.30
2018-08-27T15:03:37.896Z,82.80
2018-08-27T15:06:07.166Z,83.00
2018-08-27T15:08:36.658Z,82.30
2018-08-27T15:11:05.999Z,83.00
2018-08-27T15:13:35.253Z,82.80
2018-08-27T15:16:04.405Z,80.00
2018-08-27T15:18:33.538Z,80.80
2018-08-27T15:21:02.663Z,82.00
2018-08-27T15:23:31.942Z,83.50
2018-08-27T15:26:00.883Z,84.70
2018-08-27T15:28:30.090Z,84.60
2018-08-27T15:30:59.247Z,83.80
2018-08-27T15:33:28.386Z,82.90
2018-08-27T15:35:58.202Z,83.30
2018-08-27T15:38:27.597Z,82.80
2018-08-27T15:40:56.633Z,83.80
2018-08-27T15:43:25.825Z,85.20
2018-08-27T15:46:00.242Z,87.90
2018-08-27T15:48:29.418Z,87.70
2018-08-27T15:50:58.750Z,90.00
2018-08-27T15:53:27.740Z,89.70
2018-08-27T15:55:56.874Z,89.60
2018-08-27T15:58:26.130Z,88.70
2018-08-27T16:00:55.314Z,88.80
2018-08-27T16:03:24.422Z,88.20
2018-08-27T16:05:53.654Z,86.00
2018-08-27T16:08:22.804Z,85.60
2018-08-27T16:10:51.913Z,86.00
2018-08-27T16:13:21.003Z,86.70
2018-08-27T16:15:50.878Z,85.70
2018-08-27T16:18:19.998Z,86.70
2018-08-27T16:20:49.350Z,86.00
2018-08-27T16:23:19.069Z,86.50
2018-08-27T16:25:48.258Z,87.00
2018-08-27T16:28:17.458Z,87.20
2018-08-27T16:30:46.510Z,87.40
2018-08-27T16:33:15.649Z,87.60
2018-08-27T16:35:45.183Z,87.80
2018-08-27T16:38:14.338Z,87.90
2018-08-27T16:40:43.450Z,87.30
2018-08-27T16:43:12.594Z,87.30
2018-08-27T16:45:41.780Z,87.70
2018-08-27T16:48:10.839Z,87.50
2018-08-27T16:50:40.011Z,88.20
2018-08-27T16:53:09.215Z,88.10
2018-08-27T16:55:38.498Z,88.20
2018-08-27T16:58:07.773Z,88.60
2018-08-27T17:00:37.019Z,88.30
2018-08-27T17:03:06.271Z,88.20
2018-08-27T17:05:35.510Z,88.80
2018-08-27T17:08:05.852Z,89.20
2018-08-27T17:10:34.989Z,90.00
2018-08-27T17:13:04.106Z,90.40
2018-08-27T17:15:33.782Z,90.70
2018-08-27T17:18:02.897Z,90.60
2018-08-27T17:20:32.018Z,90.80
2018-08-27T17:23:01.171Z,91.20
2018-08-27T17:25:30.410Z,91.50
2018-08-27T17:27:59.849Z,91.60
2018-08-27T17:30:29.033Z,91.80
2018-08-27T17:32:58.314Z,91.80
2018-08-27T17:35:27.515Z,91.60
2018-08-27T17:37:56.991Z,92.00
2018-08-27T17:40:26.171Z,92.30
2018-08-27T17:42:55.286Z,92.90
2018-08-27T17:45:24.438Z,93.40
2018-08-27T17:47:53.549Z,93.60
2018-08-27T17:50:22.759Z,93.30
2018-08-27T17:52:51.909Z,93.30
2018-08-27T17:55:21.030Z,93.10
2018-08-27T17:57:50.373Z,93.30
2018-08-27T18:00:19.612Z,93.60
2018-08-27T18:02:49.298Z,94.00
2018-08-27T18:05:18.466Z,94.30
2018-08-27T18:07:47.605Z,94.70
2018-08-27T18:10:17.446Z,95.00
2018-08-27T18:12:46.582Z,95.40
2018-08-27T18:15:15.703Z,95.70
2018-08-27T18:17:44.870Z,96.10
2018-08-27T18:20:13.997Z,96.40
2018-08-27T18:22:43.274Z,96.60
2018-08-27T18:25:13.205Z,96.80
2018-08-27T18:27:42.221Z,97.00
2018-08-27T18:30:11.851Z,97.30
2018-08-27T18:32:41.002Z,97.40
2018-08-27T18:35:10.119Z,97.50
2018-08-27T18:37:39.673Z,97.60
2018-08-27T18:40:08.834Z,97.80
2018-08-27T18:42:37.949Z,97.90
2018-08-27T18:45:07.137Z,98.30
2018-08-27T18:47:36.254Z,98.30
2018-08-27T18:50:05.648Z,98.40
2018-08-27T18:52:34.775Z,98.40
2018-08-27T18:55:03.934Z,98.70
2018-08-27T18:57:33.848Z,98.80
2018-08-27T19:00:02.934Z,98.80
2018-08-27T19:02:32.106Z,99.00
2018-08-27T19:05:01.236Z,99.20
2018-08-27T19:07:30.358Z,99.50
2018-08-27T19:09:59.581Z,99.70
2018-08-27T19:12:28.834Z,99.90
2018-08-27T19:14:57.953Z,99.90
2018-08-27T19:17:27.438Z,99.90
2018-08-27T19:19:56.542Z,99.90
2018-08-27T19:22:25.691Z,99.90
2018-08-27T19:24:54.829Z,99.90
2018-08-27T19:27:24.039Z,99.90
2018-08-27T19:29:53.212Z,99.90
2018-08-27T19:32:22.309Z,99.90
2018-08-27T19:34:51.435Z,99.90
2018-08-27T19:37:20.852Z,99.90
2018-08-27T19:39:49.870Z,99.90
2018-08-27T19:42:18.973Z,99.90
2018-08-27T19:44:48.143Z,99.90
2018-08-27T19:47:17.378Z,99.90
2018-08-27T19:49:46.503Z,99.90
2018-08-27T19:52:15.645Z,99.90
2018-08-27T19:54:44.782Z,99.90
2018-08-27T19:57:13.889Z,99.90
2018-08-27T19:59:43.488Z,99.90
2018-08-27T20:02:12.616Z,99.90
2018-08-27T20:04:41.963Z,99.90
2018-08-27T20:07:11.167Z,99.90
2018-08-27T20:09:40.374Z,99.90
2018-08-27T20:12:09.697Z,99.90
2018-08-27T20:14:38.847Z,99.90
2018-08-27T20:17:07.974Z,99.90
2018-08-27T20:19:37.100Z,99.90
2018-08-27T20:22:08.774Z,99.90
2018-08-27T20:24:37.982Z,99.90
2018-08-27T20:27:07.548Z,99.90
2018-08-27T20:29:36.664Z,99.90
2018-08-27T20:32:06.713Z,99.90
2018-08-27T20:34:35.858Z,99.90
2018-08-27T20:37:04.991Z,99.90
2018-08-27T20:39:34.194Z,99.90
2018-08-27T20:42:03.254Z,99.90
2018-08-27T20:44:32.374Z,99.90
2018-08-27T20:47:01.936Z,99.90
2018-08-27T20:49:30.558Z,99.90
2018-08-27T20:52:00.069Z,99.90
2018-08-27T20:54:29.283Z,99.90
2018-08-27T20:56:58.450Z,99.90
2018-08-27T20:59:28.226Z,99.90
2018-08-27T21:01:57.366Z,99.90
2018-08-27T21:04:26.458Z,99.90
2018-08-27T21:06:55.790Z,99.90
2018-08-27T21:09:24.915Z,99.90
2018-08-27T21:11:54.026Z,99.90
2018-08-27T21:15:08.074Z,99.90
2018-08-27T21:17:37.832Z,99.90
2018-08-27T21:20:08.607Z,99.90
2018-08-27T21:22:37.770Z,99.90
2018-08-27T21:25:07.602Z,99.90
2018-08-27T21:27:37.297Z,99.90
2018-08-27T21:30:09.009Z,99.90
2018-08-27T21:32:38.144Z,99.90
2018-08-27T21:35:07.262Z,99.90
2018-08-27T21:37:37.130Z,99.90
2018-08-27T21:40:06.245Z,99.90
2018-08-27T21:42:35.793Z,99.90
2018-08-27T21:45:05.074Z,99.90
2018-08-27T21:47:34.336Z,99.90
2018-08-27T21:50:03.506Z,99.90
2018-08-27T21:52:33.402Z,99.90
2018-08-27T21:55:02.501Z,99.90
2018-08-27T21:57:32.437Z,99.90
2018-08-27T22:00:02.346Z,99.90
2018-08-27T22:02:37.325Z,99.90
2018-08-27T22:05:06.962Z,99.90
2018-08-27T22:07:36.061Z,99.90
2018-08-27T22:10:05.166Z,99.90
2018-08-27T22:12:34.274Z,99.90
2018-08-27T22:15:03.429Z,99.90
2018-08-27T22:17:32.501Z,99.90
2018-08-27T22:20:01.590Z,99.90
2018-08-27T22:22:30.683Z,99.90
2018-08-27T22:24:59.757Z,99.90
2018-08-27T22:27:28.930Z,99.90
2018-08-27T22:29:58.009Z,99.90
2018-08-27T22:32:27.087Z,99.90
2018-08-27T22:34:56.704Z,99.90
2018-08-27T22:37:26.065Z,99.90
2018-08-27T22:39:55.157Z,99.90
2018-08-27T22:42:24.254Z,99.90
2018-08-27T22:44:53.350Z,99.90
2018-08-27T22:47:22.457Z,99.90
2018-08-27T22:49:51.549Z,99.90
2018-08-27T22:52:20.621Z,99.90
2018-08-27T22:54:49.701Z,99.90
2018-08-27T22:57:18.782Z,99.90
2018-08-27T22:59:47.891Z,99.90
2018-08-27T23:02:21.938Z,99.90
2018-08-27T23:04:57.673Z,99.90
2018-08-27T23:07:28.804Z,99.90
2018-08-27T23:09:58.205Z,99.90
2018-08-27T23:12:27.293Z,99.90
2018-08-27T23:14:56.386Z,99.90
2018-08-27T23:17:25.469Z,99.90
2018-08-27T23:19:54.566Z,99.90
2018-08-27T23:22:23.645Z,99.90
2018-08-27T23:24:52.758Z,99.90
2018-08-27T23:27:21.854Z,99.90
2018-08-27T23:29:50.941Z,99.90
2018-08-27T23:32:20.067Z,99.90
2018-08-27T23:34:49.149Z,99.90
2018-08-27T23:37:18.343Z,99.90
2018-08-27T23:39:47.583Z,99.90
2018-08-27T23:42:16.627Z,99.90
2018-08-27T23:44:45.789Z,99.90
2018-08-27T23:47:14.937Z,99.90
2018-08-27T23:49:44.115Z,99.90
2018-08-27T23:52:13.607Z,99.90
2018-08-27T23:54:42.940Z,99.90
2018-08-27T23:57:12.632Z,99.90
2018-08-27T23:59:41.785Z,99.90
